Kezdőlap
METAR-TAF:

METAR-TAF

Repülőterek :

Tulcsa, Románia

földrajzi szélesség: 45-11N, földrajzi hosszúság: 028-49E, magasság: 4 m

Jelenlegi meteorológiai megfigyelések

A jelentés 35 perccel ezelõtt készült, 13:00 UTC
Észak-északnyugati szél 7 kt
Hőmérséklet 9°C
Páratartalom 81%
Légköri nyomás 1016 hPa
Látótávolság 10 km, vagy több
Kevés felhő 1800 lábon
Szakadozott felhőzet 4900 lábon

METAR: LRTC 311300Z 33007KT 9999 FEW018 BKN049 09/06 Q1016

Idő: 15:35 (13:35 UTC)

Előrejelzés

A jelentés 2 órával és 35 perccel ezelõtt készült, 11:00 UTC
Az előrejelzés 31-én 12 óra UTC és 31-én 21 óra UTC között érvényes
Északnyugati szél 12 kt
Látótávolság 10 km, vagy több
Szakadozott felhőzet 4000 lábon
31-én 12 óra UTC és 31-én 17 óra UTC között ideiglenes
Látótávolság: 5000 m
Szakadozott felhőzet 1000 lábon
Borult 3000 lábon
enyhe esõ

TAF: LRTC 311100Z 3112/3121 32012KT 9999 BKN040 TEMPO 3112/3117 5000 -RA BKN010 OVC030

Meteorológiai megfigyelések és előrejelzések több, mint 4000 repülőtéren (METAR és TAF jelentéseket).

A térképen piros és sárga pontok jelzik az elérhető meteorológiai állomásokat.

Mozgassa az egeret a pont fölött, hogy megjelenjen az állomás neve.

Azután kattintson az időjárási megfigyelések és előrejelzések megtekintéséhez.

A térkép megváltoztatása: kattintson a fekete keresztel jelölt zöld gombra ráközelítéshez, a vonallal jelölt zöld gombra távolításhoz, vagy a zöld nyilakra a szomszédos térképek eléréséhez.


METAR-TAF: